Time;durP1;ratioP1;P1;durP2;ratioP2;P2;SDS_P1;SDS_P2;PMS_P1;PMS_P2;Temp;Humidity;BMP_temperature;BMP_pressure;BME280_temperature;BME280_humidity;BME280_pressure;Samples;Min_cycle;Max_cycle;Signal;HPM_P1;HPM_P2
2023/01/14 00:01:43;;;;;;;1999.90;999.90;;;27.50;97.50;;;;;;5052035;28;20119;-75
2023/01/14 00:04:10;;;;;;;1999.90;999.90;;;27.60;97.50;;;;;;5061168;28;20028;-73
2023/01/14 00:06:38;;;;;;;1999.90;999.90;;;27.90;97.60;;;;;;5072616;28;20094;-73
2023/01/14 00:09:12;;;;;;;1999.90;999.90;;;28.30;97.30;;;;;;5056956;28;20100;-73
2023/01/14 00:11:50;;;;;;;1999.90;999.90;;;28.50;97.50;;;;;;5070009;28;20036;-73
2023/01/14 00:14:28;;;;;;;1999.90;999.90;;;28.60;98.70;;;;;;5058467;28;20049;-73
2023/01/14 00:16:57;;;;;;;1999.90;999.90;;;28.80;98.30;;;;;;5056492;28;20021;-74
2023/01/14 00:19:26;;;;;;;1999.90;999.90;;;28.60;97.90;;;;;;5058416;28;20420;-73
2023/01/14 00:21:57;;;;;;;1999.90;999.90;;;28.30;98.10;;;;;;5051264;28;20029;-74
2023/01/14 00:24:25;;;;;;;1999.90;999.90;;;28.20;98.50;;;;;;5050391;28;20029;-76
2023/01/14 00:26:54;;;;;;;1999.90;999.90;;;28.10;98.50;;;;;;5059956;28;20037;-74
2023/01/14 00:29:27;;;;;;;1999.90;999.90;;;28.30;98.60;;;;;;5052016;28;20036;-73
2023/01/14 00:31:56;;;;;;;1999.90;999.90;;;28.70;98.40;;;;;;5049163;28;20049;-73
2023/01/14 00:34:29;;;;;;;1999.90;999.90;;;28.70;97.90;;;;;;5049008;28;20032;-74
2023/01/14 00:36:56;;;;;;;1999.90;999.90;;;28.80;98.10;;;;;;5050844;28;20028;-75
2023/01/14 00:39:24;;;;;;;1999.90;999.90;;;28.90;98.10;;;;;;5060564;28;20033;-73
2023/01/14 00:41:52;;;;;;;1999.90;999.90;;;29.00;97.80;;;;;;5058770;28;20021;-74
2023/01/14 00:44:20;;;;;;;1999.90;999.90;;;29.10;97.60;;;;;;5053511;28;20025;-75
2023/01/14 00:46:49;;;;;;;1999.90;999.90;;;29.00;97.60;;;;;;5068353;28;20152;-72
2023/01/14 00:49:23;;;;;;;1999.90;999.90;;;28.80;97.40;;;;;;5053792;28;20040;-71
2023/01/14 00:51:52;;;;;;;1999.90;999.90;;;28.80;97.70;;;;;;5053273;28;20114;-75
2023/01/14 00:54:20;;;;;;;1999.90;999.90;;;28.70;97.20;;;;;;5051164;28;20487;-73
2023/01/14 00:56:48;;;;;;;1999.90;999.90;;;28.60;97.40;;;;;;5050745;28;20051;-73
2023/01/14 00:59:23;;;;;;;1999.90;999.90;;;28.50;97.30;;;;;;5057404;28;20688;-72
2023/01/14 01:01:54;;;;;;;1999.90;999.90;;;28.30;97.40;;;;;;5058751;28;20112;-73
2023/01/14 01:04:21;;;;;;;1999.90;999.90;;;28.10;97.90;;;;;;5051157;28;20036;-73
2023/01/14 01:06:49;;;;;;;1999.90;999.90;;;28.00;98.20;;;;;;5045363;28;20086;-73
2023/01/14 01:09:16;;;;;;;1999.90;999.90;;;27.70;98.10;;;;;;5049907;28;20037;-73
2023/01/14 01:11:44;;;;;;;1999.90;999.90;;;27.60;98.40;;;;;;5059204;28;20048;-74
2023/01/14 01:14:11;;;;;;;1999.90;999.90;;;27.40;98.40;;;;;;5062549;28;20048;-73
2023/01/14 01:16:40;;;;;;;1999.90;999.90;;;27.30;98.50;;;;;;5053927;28;20418;-72
2023/01/14 01:19:07;;;;;;;1999.90;999.90;;;27.20;98.50;;;;;;5050651;28;21560;-74
2023/01/14 01:21:34;;;;;;;1999.90;999.90;;;27.20;98.70;;;;;;5056493;28;20031;-75
2023/01/14 01:24:02;;;;;;;1999.90;999.90;;;27.20;98.40;;;;;;5056196;28;20031;-76
2023/01/14 01:26:29;;;;;;;1999.90;999.90;;;27.10;98.10;;;;;;5059783;28;20028;-73
2023/01/14 01:28:58;;;;;;;1999.90;999.90;;;27.10;98.20;;;;;;5057112;28;20036;-73
2023/01/14 01:31:27;;;;;;;1999.90;999.90;;;27.20;98.30;;;;;;5050407;28;20044;-74
2023/01/14 01:33:56;;;;;;;1999.90;999.90;;;27.30;98.10;;;;;;5043551;28;20032;-73
2023/01/14 01:36:25;;;;;;;1999.90;999.90;;;27.20;98.00;;;;;;5050686;28;20112;-73
2023/01/14 01:38:53;;;;;;;1999.90;999.90;;;27.20;97.70;;;;;;5051667;28;20056;-75
2023/01/14 01:41:28;;;;;;;1999.90;999.90;;;27.20;97.70;;;;;;5051803;28;20022;-73
2023/01/14 01:44:29;;;;;;;1999.90;999.90;;;27.20;97.60;;;;;;5045074;28;20028;-73
2023/01/14 01:46:56;;;;;;;1999.90;999.90;;;27.30;96.60;;;;;;5039804;28;20491;-75
2023/01/14 01:49:28;;;;;;;1999.90;999.90;;;27.40;96.40;;;;;;5054483;28;20389;-73
2023/01/14 01:52:09;;;;;;;1999.90;999.90;;;27.50;95.70;;;;;;5052937;28;20486;-74
2023/01/14 01:54:42;;;;;;;1999.90;999.90;;;27.60;95.80;;;;;;5057104;28;20044;-73
2023/01/14 01:57:13;;;;;;;1999.90;999.90;;;27.80;95.70;;;;;;5042859;28;20047;-73
2023/01/14 01:59:45;;;;;;;1999.90;999.90;;;28.00;94.90;;;;;;5058808;28;20032;-74
2023/01/14 02:02:12;;;;;;;1999.90;999.90;;;28.10;94.90;;;;;;5049107;28;20060;-75
2023/01/14 02:04:40;;;;;;;1999.90;999.90;;;28.40;96.50;;;;;;5058775;28;20036;-73
2023/01/14 02:07:22;;;;;;;1999.90;999.90;;;28.80;96.10;;;;;;5055178;28;20415;-73
2023/01/14 02:09:58;;;;;;;1999.90;999.90;;;29.10;96.00;;;;;;5053812;28;20029;-71
2023/01/14 02:12:45;;;;;;;1999.90;999.90;;;28.90;96.10;;;;;;5030441;28;20048;-71
2023/01/14 02:15:27;;;;;;;1999.90;999.90;;;29.30;96.50;;;;;;5069674;28;20036;-72
2023/01/14 02:18:01;;;;;;;1999.90;999.90;;;29.80;95.30;;;;;;5061526;28;20032;-72
2023/01/14 02:21:03;;;;;;;1999.90;999.90;;;29.80;94.90;;;;;;5062958;28;20071;-72
2023/01/14 02:24:04;;;;;;;1999.90;999.90;;;29.90;94.90;;;;;;5029903;28;20586;-71
2023/01/14 02:26:40;;;;;;;1999.90;999.90;;;30.50;94.90;;;;;;5058352;28;20032;-71
2023/01/14 02:29:46;;;;;;;1999.90;999.90;;;30.70;94.30;;;;;;5052700;28;20475;-71
2023/01/14 02:32:39;;;;;;;1999.90;999.90;;;30.20;94.20;;;;;;5056463;28;20048;-72
2023/01/14 02:35:30;;;;;;;1999.90;999.90;;;29.70;94.60;;;;;;5070795;28;20285;-71
2023/01/14 02:38:07;;;;;;;1999.90;999.90;;;29.30;94.80;;;;;;5049560;28;20113;-73
2023/01/14 02:41:04;;;;;;;1999.90;999.90;;;28.90;95.30;;;;;;5038825;28;20024;-71
2023/01/14 02:46:58;;;;;;;1999.90;999.90;;;28.70;95.10;;;;;;5037189;28;20560;-72
2023/01/14 02:49:32;;;;;;;1999.90;999.90;;;28.80;95.10;;;;;;5058448;28;20033;-70
2023/01/14 02:52:00;;;;;;;1999.90;999.90;;;28.70;95.10;;;;;;5052275;28;20069;-71
2023/01/14 02:54:28;;;;;;;1999.90;999.90;;;28.80;95.20;;;;;;5060116;28;20028;-70
2023/01/14 02:57:02;;;;;;;1999.90;999.90;;;28.80;95.00;;;;;;5073813;28;20025;-72
2023/01/14 02:59:32;;;;;;;1999.90;999.90;;;28.90;95.00;;;;;;5053505;28;20031;-71
2023/01/14 03:02:29;;;;;;;1999.90;999.90;;;28.80;94.90;;;;;;5052879;28;20036;-71
2023/01/14 03:05:31;;;;;;;1999.90;999.90;;;28.50;95.50;;;;;;5075955;28;20127;-69
2023/01/14 03:08:11;;;;;;;1999.90;999.90;;;28.30;95.50;;;;;;5067905;28;20475;-71
2023/01/14 03:10:49;;;;;;;1999.90;999.90;;;28.20;95.80;;;;;;5061757;28;20157;-71
2023/01/14 03:13:17;;;;;;;1999.90;999.90;;;28.50;95.80;;;;;;5057446;28;20047;-70
2023/01/14 03:16:07;;;;;;;1999.90;999.90;;;28.90;95.50;;;;;;5056671;28;20033;-72
2023/01/14 03:19:21;;;;;;;1999.90;999.90;;;29.60;94.60;;;;;;5058931;28;20154;-71
2023/01/14 03:21:52;;;;;;;1999.90;999.90;;;30.90;93.30;;;;;;4993420;28;20026;-70
2023/01/14 03:24:29;;;;;;;1999.90;999.90;;;31.30;93.00;;;;;;5050891;28;20032;-70
2023/01/14 03:27:05;;;;;;;1999.90;999.90;;;31.80;92.90;;;;;;5070416;28;20070;-70
2023/01/14 03:29:42;;;;;;;1999.90;999.90;;;32.00;92.90;;;;;;5070299;28;20475;-70
2023/01/14 03:32:23;;;;;;;1999.90;999.90;;;31.70;92.70;;;;;;5065145;28;20075;-71
2023/01/14 03:35:12;;;;;;;1999.90;999.90;;;31.60;92.90;;;;;;5066337;28;20063;-71
2023/01/14 03:37:46;;;;;;;1999.90;999.90;;;31.10;93.10;;;;;;5056909;28;20029;-71
2023/01/14 03:40:15;;;;;;;1999.90;999.90;;;30.90;93.40;;;;;;5051679;28;20032;-71
2023/01/14 03:42:51;;;;;;;1999.90;999.90;;;31.30;93.00;;;;;;5039737;28;20065;-71
2023/01/14 03:45:21;;;;;;;1999.90;999.90;;;31.30;93.00;;;;;;5071104;28;20078;-70
2023/01/14 03:47:49;;;;;;;1999.90;999.90;;;31.40;93.00;;;;;;5068115;28;20033;-70
2023/01/14 03:50:19;;;;;;;1999.90;999.90;;;31.60;92.80;;;;;;5055607;28;20025;-70
2023/01/14 03:53:16;;;;;;;1999.90;999.90;;;31.80;93.10;;;;;;5058841;28;20040;-69
2023/01/14 03:56:07;;;;;;;1999.90;999.90;;;32.10;92.60;;;;;;5032850;28;20025;-70
2023/01/14 03:58:44;;;;;;;1999.90;999.90;;;32.30;92.10;;;;;;5058511;28;20107;-72
2023/01/14 04:01:20;;;;;;;1999.90;999.90;;;32.20;92.30;;;;;;5070779;28;20028;-72
2023/01/14 04:03:49;;;;;;;1999.90;999.90;;;32.10;92.00;;;;;;5069507;28;20024;-70
2023/01/14 04:06:17;;;;;;;1999.90;999.90;;;31.80;92.10;;;;;;5059710;28;20499;-70
2023/01/14 04:08:44;;;;;;;1999.90;999.90;;;31.60;92.20;;;;;;5056644;28;20056;-72
2023/01/14 04:11:11;;;;;;;1999.90;999.90;;;31.70;92.20;;;;;;5052374;28;20048;-72
2023/01/14 04:16:24;;;;;;;1999.90;999.90;;;31.40;92.30;;;;;;5032498;28;20861;-70
2023/01/14 04:18:52;;;;;;;1999.90;999.90;;;31.60;91.90;;;;;;5034141;28;20041;-70
2023/01/14 04:21:19;;;;;;;1999.90;999.90;;;31.20;92.30;;;;;;5038269;28;20103;-70
2023/01/14 04:23:47;;;;;;;1999.90;999.90;;;31.20;92.80;;;;;;5053237;28;20128;-70
2023/01/14 04:26:14;;;;;;;1999.90;999.90;;;31.00;92.40;;;;;;5052294;28;20339;-70
2023/01/14 04:28:41;;;;;;;1999.90;999.90;;;31.10;92.50;;;;;;5054618;28;20037;-70
2023/01/14 04:31:09;;;;;;;1999.90;999.90;;;31.20;92.10;;;;;;5071626;28;20072;-70
2023/01/14 04:33:36;;;;;;;1999.90;999.90;;;31.30;92.40;;;;;;5068624;28;20040;-69
2023/01/14 04:36:04;;;;;;;1999.90;999.90;;;31.20;92.30;;;;;;5069408;28;20063;-70
2023/01/14 04:38:31;;;;;;;1999.90;999.90;;;31.40;92.20;;;;;;5052533;28;20028;-71
2023/01/14 04:40:58;;;;;;;1999.90;999.90;;;31.20;92.20;;;;;;5057978;28;20077;-71
2023/01/14 04:43:26;;;;;;;1999.90;999.90;;;31.00;92.50;;;;;;5052016;28;20460;-71
2023/01/14 04:45:54;;;;;;;1999.90;999.90;;;30.50;92.80;;;;;;5070506;28;20031;-72
2023/01/14 04:48:24;;;;;;;1999.90;999.90;;;30.20;92.90;;;;;;5061638;28;20032;-70
2023/01/14 04:50:52;;;;;;;1999.90;999.90;;;30.10;93.00;;;;;;5067566;28;20032;-70
2023/01/14 04:53:22;;;;;;;1999.90;999.90;;;29.70;93.40;;;;;;5067850;28;20087;-71
2023/01/14 04:55:52;;;;;;;1999.90;999.90;;;29.60;93.50;;;;;;5052228;28;20495;-71
2023/01/14 04:58:20;;;;;;;1999.90;999.90;;;29.60;93.70;;;;;;5056110;28;20036;-70
2023/01/14 05:00:48;;;;;;;1999.90;999.90;;;29.70;93.70;;;;;;5050422;28;20490;-71
2023/01/14 05:03:16;;;;;;;1999.90;999.90;;;29.60;93.80;;;;;;5051865;28;20511;-71
2023/01/14 05:05:45;;;;;;;1999.90;999.90;;;29.40;94.10;;;;;;5070105;28;20025;-72
2023/01/14 05:08:13;;;;;;;1999.90;999.90;;;29.40;94.30;;;;;;5065048;28;20025;-71
2023/01/14 05:10:41;;;;;;;1999.90;999.90;;;29.40;94.10;;;;;;5069069;28;20679;-71
2023/01/14 05:13:09;;;;;;;1999.90;999.90;;;29.40;93.90;;;;;;5063407;28;20033;-72
2023/01/14 05:15:39;;;;;;;1999.90;999.90;;;29.20;94.10;;;;;;5065916;28;20033;-72
2023/01/14 05:18:08;;;;;;;1999.90;999.90;;;29.00;94.10;;;;;;5064962;28;20060;-72
2023/01/14 05:20:36;;;;;;;1999.90;999.90;;;28.80;94.50;;;;;;5040285;28;20113;-72
2023/01/14 05:23:06;;;;;;;1999.90;999.90;;;28.70;94.30;;;;;;5055114;28;20842;-72
2023/01/14 05:25:34;;;;;;;1999.90;999.90;;;28.80;94.30;;;;;;5057846;28;20028;-72
2023/01/14 05:28:04;;;;;;;1999.90;999.90;;;28.80;94.30;;;;;;5064355;28;20039;-71
2023/01/14 05:30:31;;;;;;;1999.90;999.90;;;29.00;94.40;;;;;;5062363;28;20033;-71
2023/01/14 05:32:59;;;;;;;1999.90;999.90;;;29.40;93.90;;;;;;5046685;28;20078;-71
2023/01/14 05:35:26;;;;;;;1999.90;999.90;;;29.70;93.80;;;;;;5050093;28;20079;-71
2023/01/14 05:37:55;;;;;;;1999.90;999.90;;;29.80;93.30;;;;;;5066598;28;20032;-71
2023/01/14 05:40:23;;;;;;;1999.90;999.90;;;29.50;93.50;;;;;;5069363;28;20135;-71
2023/01/14 05:45:41;;;;;;;1999.90;999.90;;;28.90;94.10;;;;;;5033658;28;20183;-70
2023/01/14 05:48:12;;;;;;;1999.90;999.90;;;28.90;94.30;;;;;;5061536;28;20044;-71
2023/01/14 05:50:40;;;;;;;1999.90;999.90;;;28.90;94.20;;;;;;5062382;28;20025;-70
2023/01/14 05:53:08;;;;;;;1999.90;999.90;;;28.90;94.20;;;;;;5057842;28;20052;-71
2023/01/14 05:55:36;;;;;;;1999.90;999.90;;;28.70;94.10;;;;;;5052394;28;20024;-71
2023/01/14 05:58:05;;;;;;;1999.90;999.90;;;28.60;94.40;;;;;;5060455;28;20116;-70
2023/01/14 06:06:23;;;;;;;1999.90;999.90;;;28.70;94.30;;;;;;5054690;28;20074;-71
2023/01/14 06:09:03;;;;;;;1999.90;999.90;;;28.60;94.40;;;;;;5061567;28;20083;-72
2023/01/14 06:11:34;;;;;;;1999.90;999.90;;;28.60;94.60;;;;;;5074628;28;20073;-70
2023/01/14 06:14:03;;;;;;;1999.90;999.90;;;28.70;94.50;;;;;;5069295;28;20090;-70
2023/01/14 06:16:41;;;;;;;1999.90;999.90;;;28.60;94.40;;;;;;5061522;28;20043;-70
2023/01/14 06:19:13;;;;;;;1999.90;999.90;;;28.60;94.60;;;;;;5058670;28;20027;-71
2023/01/14 06:21:41;;;;;;;1999.90;999.90;;;28.40;94.70;;;;;;5059776;28;20043;-70
2023/01/14 06:24:09;;;;;;;1999.90;999.90;;;28.30;94.80;;;;;;5065169;28;20475;-71
2023/01/14 06:26:37;;;;;;;1999.90;999.90;;;28.20;94.80;;;;;;5065219;28;20060;-72
2023/01/14 06:29:07;;;;;;;1999.90;999.90;;;28.10;94.80;;;;;;5069042;28;20032;-71
2023/01/14 06:31:36;;;;;;;1999.90;999.90;;;28.10;94.80;;;;;;5071772;28;20055;-71
2023/01/14 06:34:04;;;;;;;1999.90;999.90;;;28.00;94.70;;;;;;5057570;28;20029;-70
2023/01/14 06:36:37;;;;;;;1999.90;999.90;;;27.80;94.50;;;;;;5051442;28;20029;-70
2023/01/14 06:39:05;;;;;;;1999.90;999.90;;;27.70;94.90;;;;;;5055020;28;20029;-69
2023/01/14 06:41:32;;;;;;;1999.90;999.90;;;27.80;94.90;;;;;;5053974;28;20083;-70
2023/01/14 06:44:00;;;;;;;1999.90;999.90;;;28.00;94.80;;;;;;5061774;28;20032;-71
2023/01/14 06:46:29;;;;;;;1999.90;999.90;;;28.40;94.60;;;;;;5062735;28;20126;-72
2023/01/14 06:48:57;;;;;;;1999.90;999.90;;;28.50;94.30;;;;;;5065858;28;20032;-72
2023/01/14 06:51:25;;;;;;;1999.90;999.90;;;28.60;94.20;;;;;;5063843;28;20597;-72
2023/01/14 06:53:54;;;;;;;1999.90;999.90;;;28.70;94.30;;;;;;5069274;28;20063;-72
2023/01/14 06:56:21;;;;;;;1999.90;999.90;;;28.70;94.10;;;;;;5054006;28;20029;-70
2023/01/14 06:58:50;;;;;;;1999.90;999.90;;;28.50;94.60;;;;;;5051915;28;20029;-71
2023/01/14 07:01:17;;;;;;;1999.90;999.90;;;28.30;94.80;;;;;;5058525;28;20047;-70
2023/01/14 07:03:44;;;;;;;1999.90;999.90;;;28.20;94.90;;;;;;5064133;28;20028;-73
2023/01/14 07:06:12;;;;;;;1999.90;999.90;;;28.10;95.00;;;;;;5053966;28;20047;-71
2023/01/14 07:08:43;;;;;;;1999.90;999.90;;;27.90;95.10;;;;;;5048150;28;20029;-71
2023/01/14 07:11:12;;;;;;;1999.90;999.90;;;27.80;95.10;;;;;;5066600;28;20060;-72
2023/01/14 07:13:39;;;;;;;1999.90;999.90;;;27.60;95.30;;;;;;5056737;28;20067;-71
2023/01/14 07:16:07;;;;;;;1999.90;999.90;;;27.40;95.40;;;;;;5051291;28;20155;-71
2023/01/14 07:18:35;;;;;;;1999.90;999.90;;;27.40;95.60;;;;;;5051144;28;20099;-71
2023/01/14 07:21:02;;;;;;;1999.90;999.90;;;27.40;95.70;;;;;;5063307;28;20417;-71
2023/01/14 07:23:29;;;;;;;1999.90;999.90;;;27.30;95.70;;;;;;5060772;28;20050;-71
2023/01/14 07:25:57;;;;;;;1999.90;999.90;;;27.30;95.70;;;;;;5057937;28;20418;-70
2023/01/14 07:28:28;;;;;;;1999.90;999.90;;;27.30;95.60;;;;;;5059981;28;20107;-71
2023/01/14 07:30:56;;;;;;;1999.90;999.90;;;27.20;95.80;;;;;;5067810;28;20555;-70
2023/01/14 07:33:23;;;;;;;1999.90;999.90;;;27.20;95.80;;;;;;5054983;28;20043;-71
2023/01/14 07:35:52;;;;;;;1999.90;999.90;;;27.10;95.90;;;;;;5059101;28;20166;-71
2023/01/14 07:38:20;;;;;;;1999.90;999.90;;;27.00;96.10;;;;;;5058028;28;20601;-72
2023/01/14 07:40:50;;;;;;;1999.90;999.90;;;27.10;96.10;;;;;;5054343;28;20037;-72
2023/01/14 07:43:18;;;;;;;1999.90;999.90;;;27.20;96.20;;;;;;5052367;28;20025;-70
2023/01/14 07:45:45;;;;;;;1999.90;999.90;;;27.20;96.20;;;;;;5054304;28;20036;-70
2023/01/14 07:48:13;;;;;;;1999.90;999.90;;;27.20;96.00;;;;;;5054637;28;20387;-70
2023/01/14 07:50:40;;;;;;;1999.90;999.90;;;27.00;96.40;;;;;;5063729;28;20467;-71
2023/01/14 07:53:08;;;;;;;1999.90;999.90;;;26.80;96.60;;;;;;5051742;28;20048;-71
2023/01/14 07:55:36;;;;;;;1999.90;999.90;;;26.70;96.80;;;;;;5048979;28;20158;-71
2023/01/14 07:58:04;;;;;;;1999.90;999.90;;;26.50;97.00;;;;;;5051531;28;20044;-72
2023/01/14 08:00:31;;;;;;;1999.90;999.90;;;26.40;96.90;;;;;;5051893;28;20154;-74
2023/01/14 08:02:59;;;;;;;1999.90;999.90;;;26.30;96.90;;;;;;5049559;28;20489;-71
2023/01/14 08:05:26;;;;;;;1999.90;999.90;;;26.10;97.00;;;;;;5054429;28;20043;-72
2023/01/14 08:07:54;;;;;;;1999.90;999.90;;;26.20;97.10;;;;;;5049883;28;20055;-72
2023/01/14 08:10:22;;;;;;;1999.90;999.90;;;26.10;96.90;;;;;;5044741;28;20021;-71
2023/01/14 08:12:50;;;;;;;1999.90;999.90;;;25.90;97.00;;;;;;5048853;28;20032;-70
2023/01/14 08:15:18;;;;;;;1999.90;999.90;;;25.80;97.20;;;;;;5052267;28;20029;-70
2023/01/14 08:17:46;;;;;;;1999.90;999.90;;;25.60;97.20;;;;;;5057375;28;20029;-70
2023/01/14 08:20:13;;;;;;;1999.90;999.90;;;25.60;97.40;;;;;;5057258;28;20398;-73
2023/01/14 08:22:41;;;;;;;1999.90;999.90;;;25.50;97.30;;;;;;5057613;28;20052;-77
2023/01/14 08:25:08;;;;;;;1999.90;999.90;;;25.40;97.60;;;;;;5068240;28;20028;-68
2023/01/14 08:27:36;;;;;;;1999.90;999.90;;;25.30;97.70;;;;;;5050345;28;20111;-72
2023/01/14 08:30:05;;;;;;;1999.90;999.90;;;25.20;98.00;;;;;;5052046;28;20049;-71
2023/01/14 08:32:33;;;;;;;1999.90;999.90;;;25.20;98.20;;;;;;5050969;28;20051;-71
2023/01/14 08:35:00;;;;;;;1999.90;999.90;;;25.20;98.40;;;;;;5067826;28;20033;-74
2023/01/14 08:37:28;;;;;;;1999.90;999.90;;;25.10;98.50;;;;;;5058023;28;20110;-71
2023/01/14 08:39:55;;;;;;;1999.90;999.90;;;25.00;98.70;;;;;;5053842;28;20033;-72
2023/01/14 08:42:22;;;;;;;1999.90;999.90;;;24.90;98.80;;;;;;5050918;28;20037;-72
2023/01/14 08:44:49;;;;;;;1999.90;999.90;;;24.80;99.00;;;;;;5048980;28;20044;-70
2023/01/14 08:47:17;;;;;;;1999.90;999.90;;;24.80;99.10;;;;;;5050825;28;20047;-72
2023/01/14 08:49:45;;;;;;;1999.90;999.90;;;24.70;99.20;;;;;;5049943;28;20028;-71
2023/01/14 08:52:12;;;;;;;1999.90;999.90;;;24.60;99.30;;;;;;5060207;28;20039;-71
2023/01/14 08:54:39;;;;;;;1999.90;999.90;;;24.60;99.80;;;;;;5058727;28;20082;-71
2023/01/14 08:57:07;;;;;;;1999.90;999.90;;;24.60;99.60;;;;;;5052520;28;20921;-72
2023/01/14 08:59:34;;;;;;;1999.90;999.90;;;24.60;99.70;;;;;;5060116;28;20028;-71
2023/01/14 09:02:02;;;;;;;1999.90;999.90;;;24.50;99.80;;;;;;5059798;28;20044;-73
2023/01/14 09:04:29;;;;;;;1999.90;999.90;;;24.50;99.90;;;;;;5049710;28;20063;-70
2023/01/14 09:18:02;;;;;;;1999.90;999.90;;;24.20;99.90;;;;;;5057382;28;20074;-71
2023/01/14 09:20:36;;;;;;;1999.90;999.90;;;24.20;99.90;;;;;;5048760;28;20033;-70
2023/01/14 09:23:06;;;;;;;1999.90;999.90;;;24.10;99.90;;;;;;5043311;28;20989;-72
2023/01/14 09:25:34;;;;;;;1999.90;999.90;;;24.10;99.90;;;;;;5051512;28;20032;-69
2023/01/14 09:28:01;;;;;;;1999.90;999.90;;;24.10;99.90;;;;;;5046015;28;20384;-72
2023/01/14 09:30:29;;;;;;;1999.90;999.90;;;24.10;99.90;;;;;;5064981;28;20015;-70
2023/01/14 09:32:56;;;;;;;1999.90;999.90;;;24.10;99.90;;;;;;5057883;28;20559;-74
2023/01/14 09:35:24;;;;;;;1999.90;999.90;;;24.00;99.90;;;;;;5069066;28;20025;-69
2023/01/14 09:37:51;;;;;;;1999.90;999.90;;;24.00;99.90;;;;;;5063624;28;20489;-72
2023/01/14 09:40:19;;;;;;;1999.90;999.90;;;24.00;99.90;;;;;;5045917;28;20135;-72
2023/01/14 09:42:48;;;;;;;1999.90;999.90;;;24.00;99.90;;;;;;5062526;28;20040;-70
2023/01/14 09:45:24;;;;;;;1999.90;999.90;;;24.00;99.90;;;;;;5058224;28;20091;-69
2023/01/14 09:47:53;;;;;;;1999.90;999.90;;;24.00;99.90;;;;;;5046869;28;20430;-71
2023/01/14 09:50:30;;;;;;;1999.90;999.90;;;24.00;99.90;;;;;;5040387;28;20379;-72
2023/01/14 09:53:04;;;;;;;1999.90;999.90;;;24.00;99.90;;;;;;5043201;28;20045;-71
2023/01/14 09:55:34;;;;;;;1999.90;999.90;;;24.00;99.90;;;;;;5042731;28;20332;-72
2023/01/14 09:58:10;;;;;;;1999.90;999.90;;;23.90;99.90;;;;;;5039067;28;20037;-72
2023/01/14 10:00:51;;;;;;;1999.90;999.90;;;24.00;99.90;;;;;;5040903;28;20029;-71
2023/01/14 10:03:34;;;;;;;1999.90;999.90;;;23.80;99.90;;;;;;5039815;28;20105;-72
2023/01/14 10:06:06;;;;;;;1999.90;999.90;;;23.80;99.90;;;;;;5039131;28;20033;-71
2023/01/14 10:08:47;;;;;;;1999.90;999.90;;;23.70;99.90;;;;;;5039414;28;20118;-72
2023/01/14 10:11:15;;;;;;;1999.90;999.90;;;23.60;99.90;;;;;;5040357;28;20059;-71
2023/01/14 10:13:53;;;;;;;1999.90;999.90;;;23.60;99.90;;;;;;5038985;28;20090;-72
2023/01/14 10:16:45;;;;;;;1999.90;999.90;;;23.60;99.90;;;;;;5039951;28;20040;-72
2023/01/14 10:19:13;;;;;;;1999.90;999.90;;;23.70;99.90;;;;;;5051089;28;20046;-72
2023/01/14 10:21:44;;;;;;;1999.90;999.90;;;23.70;99.90;;;;;;5048505;28;20044;-70
2023/01/14 10:24:16;;;;;;;1999.90;999.90;;;23.60;99.90;;;;;;5048483;28;20029;-72
2023/01/14 10:26:49;;;;;;;1999.90;999.90;;;23.60;99.90;;;;;;5058135;28;20032;-71
2023/01/14 10:29:21;;;;;;;1999.90;999.90;;;23.50;99.90;;;;;;5042782;28;20033;-71
2023/01/14 10:31:59;;;;;;;1999.90;999.90;;;23.40;99.90;;;;;;5033665;28;20037;-71
2023/01/14 10:34:42;;;;;;;1999.90;999.90;;;23.30;99.90;;;;;;5049782;28;20037;-69
2023/01/14 10:37:11;;;;;;;1999.90;999.90;;;23.30;99.90;;;;;;5062706;28;20028;-69
2023/01/14 10:39:50;;;;;;;1999.90;999.90;;;23.20;99.90;;;;;;5051328;28;21254;-70
2023/01/14 10:42:25;;;;;;;1999.90;999.90;;;23.20;99.90;;;;;;5052032;28;20033;-71
2023/01/14 10:44:54;;;;;;;1999.90;999.90;;;23.10;99.90;;;;;;5056274;28;20139;-71
2023/01/14 10:47:24;;;;;;;1999.90;999.90;;;23.10;99.90;;;;;;5045272;28;20423;-70
2023/01/14 10:49:59;;;;;;;1999.90;999.90;;;23.10;99.90;;;;;;5037435;28;20056;-70
2023/01/14 10:52:33;;;;;;;1999.90;999.90;;;23.10;99.90;;;;;;5041112;28;20040;-72
2023/01/14 10:55:11;;;;;;;1999.90;999.90;;;23.00;99.90;;;;;;5042949;28;20036;-72
2023/01/14 10:58:01;;;;;;;1999.90;999.90;;;23.00;99.90;;;;;;5042819;28;20491;-74
2023/01/14 11:00:50;;;;;;;1999.90;999.90;;;23.00;99.90;;;;;;5043696;28;20039;-73
2023/01/14 11:03:23;;;;;;;1999.90;999.90;;;23.00;99.90;;;;;;5043203;28;20059;-73
2023/01/14 11:06:13;;;;;;;1999.90;999.90;;;22.90;99.90;;;;;;5060477;28;20406;-73
2023/01/14 11:08:52;;;;;;;1999.90;999.90;;;22.90;99.90;;;;;;5060307;28;20403;-72
2023/01/14 11:11:22;;;;;;;1999.90;999.90;;;22.90;99.90;;;;;;5057080;28;20029;-73
2023/01/14 11:13:55;;;;;;;1999.90;999.90;;;22.90;99.90;;;;;;5042166;28;20041;-72
2023/01/14 11:16:25;;;;;;;1999.90;999.90;;;22.90;99.90;;;;;;5044236;28;20051;-72
2023/01/14 11:18:56;;;;;;;1999.90;999.90;;;22.90;99.90;;;;;;5041121;28;20044;-72
2023/01/14 11:21:26;;;;;;;1999.90;999.90;;;22.90;99.90;;;;;;5044162;28;20036;-72
2023/01/14 11:24:02;;;;;;;1999.90;999.90;;;22.80;99.90;;;;;;5042489;28;20036;-74
2023/01/14 11:26:38;;;;;;;1999.90;999.90;;;22.80;99.90;;;;;;5043584;28;20025;-74
2023/01/14 11:29:25;;;;;;;1999.90;999.90;;;22.80;99.90;;;;;;5042046;28;20113;-72
2023/01/14 11:32:05;;;;;;;1999.90;999.90;;;22.70;99.90;;;;;;5043898;28;20106;-73
2023/01/14 11:34:47;;;;;;;1999.90;999.90;;;22.70;99.90;;;;;;5041652;28;20037;-72
2023/01/14 11:37:22;;;;;;;1999.90;999.90;;;22.70;99.90;;;;;;5042283;28;20039;-74
2023/01/14 11:39:59;;;;;;;1999.90;999.90;;;22.60;99.90;;;;;;5043247;28;20154;-73
2023/01/14 11:42:43;;;;;;;1999.90;999.90;;;22.70;99.90;;;;;;5043247;28;20028;-72
2023/01/14 11:45:13;;;;;;;1999.90;999.90;;;22.70;99.90;;;;;;5043312;28;20036;-73
2023/01/14 11:47:53;;;;;;;1999.90;999.90;;;22.70;99.90;;;;;;5044735;28;20112;-73
2023/01/14 11:50:25;;;;;;;1999.90;999.90;;;22.70;99.90;;;;;;5042709;28;20090;-74
2023/01/14 11:53:16;;;;;;;1999.90;999.90;;;22.70;99.90;;;;;;5041251;28;20041;-73
2023/01/14 11:55:47;;;;;;;1999.90;999.90;;;22.70;99.90;;;;;;5043132;28;20033;-71
2023/01/14 11:58:30;;;;;;;1999.90;999.90;;;22.70;99.90;;;;;;5040707;28;20368;-71
2023/01/14 12:01:17;;;;;;;1999.90;999.90;;;22.70;99.90;;;;;;5043420;28;20025;-73
2023/01/14 12:04:08;;;;;;;1999.90;999.90;;;22.70;99.90;;;;;;5040995;28;20028;-73
2023/01/14 12:06:58;;;;;;;1999.90;999.90;;;22.70;99.90;;;;;;5041981;28;20438;-74
2023/01/14 12:09:35;;;;;;;1999.90;999.90;;;22.70;99.90;;;;;;5042321;28;20029;-73
2023/01/14 12:12:21;;;;;;;1999.90;999.90;;;22.60;99.90;;;;;;5043148;28;20071;-74
2023/01/14 12:17:55;;;;;;;1999.90;999.90;;;22.60;99.90;;;;;;5042150;28;20039;-73
2023/01/14 12:20:27;;;;;;;1999.90;999.90;;;22.50;99.90;;;;;;5042569;28;20021;-73
2023/01/14 12:23:05;;;;;;;1999.90;999.90;;;22.50;99.90;;;;;;5039814;28;20360;-71
2023/01/14 12:25:44;;;;;;;1999.90;999.90;;;22.50;99.90;;;;;;5042011;28;20514;-72
2023/01/14 12:28:20;;;;;;;1999.90;999.90;;;22.50;99.90;;;;;;5042716;28;20467;-72
2023/01/14 12:30:53;;;;;;;1999.90;999.90;;;22.40;99.90;;;;;;5040707;28;20037;-73
2023/01/14 12:33:33;;;;;;;1999.90;999.90;;;22.40;99.90;;;;;;5043495;28;21290;-72
2023/01/14 12:36:16;;;;;;;1999.90;999.90;;;22.30;99.90;;;;;;5043719;28;20052;-74
2023/01/14 12:45:44;;;;;;;1999.90;999.90;;;22.30;99.90;;;;;;5052769;28;20032;-72
2023/01/14 12:48:24;;;;;;;1999.90;999.90;;;22.30;99.90;;;;;;5051085;28;20372;-75
2023/01/14 12:51:03;;;;;;;1999.90;999.90;;;22.40;99.90;;;;;;5040270;28;20383;-73
2023/01/14 12:53:35;;;;;;;1999.90;999.90;;;22.30;99.90;;;;;;5057104;28;20111;-73
2023/01/14 12:56:07;;;;;;;1999.90;999.90;;;22.30;99.90;;;;;;5044799;28;20501;-73
2023/01/14 12:58:40;;;;;;;1999.90;999.90;;;22.30;99.90;;;;;;5049968;28;20100;-72
2023/01/14 13:01:12;;;;;;;1999.90;999.90;;;22.30;99.90;;;;;;5048979;28;20025;-72